createdAt,value
2022-09-06T00:00:40.034Z,1.38
2022-09-06T00:03:36.510Z,1.33
2022-09-06T00:06:23.846Z,1.58
2022-09-06T00:09:17.490Z,1.33
2022-09-06T00:12:11.487Z,1.17
2022-09-06T00:15:06.691Z,1.40
2022-09-06T00:18:07.477Z,1.60
2022-09-06T00:21:01.494Z,1.30
2022-09-06T00:23:55.552Z,1.48
2022-09-06T00:26:42.657Z,1.20
2022-09-06T00:29:36.532Z,1.20
2022-09-06T00:32:30.515Z,1.30
2022-09-06T00:35:18.747Z,1.30
2022-09-06T00:38:12.530Z,1.45
2022-09-06T00:40:59.974Z,1.33
2022-09-06T00:43:53.546Z,1.45
2022-09-06T00:46:51.570Z,1.65
2022-09-06T00:49:50.537Z,1.45
2022-09-06T00:52:39.099Z,1.70
2022-09-06T00:55:32.559Z,1.77
2022-09-06T00:58:26.656Z,1.92
2022-09-06T01:01:14.031Z,1.73
2022-09-06T01:04:09.570Z,2.00
2022-09-06T01:07:17.567Z,2.28
2022-09-06T01:10:25.807Z,1.80
2022-09-06T01:13:50.627Z,2.20
2022-09-06T01:16:44.605Z,2.40
2022-09-06T01:20:03.792Z,2.40
2022-09-06T01:23:25.589Z,2.15
2022-09-06T01:26:40.603Z,2.13
2022-09-06T01:29:40.591Z,2.00
2022-09-06T01:32:34.981Z,2.10
2022-09-06T01:35:46.603Z,1.98
2022-09-06T01:38:34.172Z,2.20
2022-09-06T01:41:27.676Z,2.33
2022-09-06T01:44:22.030Z,2.65
2022-09-06T01:47:28.639Z,2.65
2022-09-06T01:50:47.873Z,2.47
2022-09-06T01:54:02.686Z,2.47
2022-09-06T01:57:01.686Z,3.38
2022-09-06T02:00:09.214Z,2.75
2022-09-06T02:03:29.760Z,2.78
2022-09-06T02:06:29.055Z,2.58
2022-09-06T02:09:30.698Z,2.40
2022-09-06T02:12:26.675Z,2.70
2022-09-06T02:15:34.708Z,2.28
2022-09-06T02:18:27.350Z,2.38
2022-09-06T02:21:23.751Z,2.30
2022-09-06T02:24:25.682Z,2.53
2022-09-06T02:27:14.555Z,2.63
2022-09-06T02:30:09.735Z,2.67
2022-09-06T02:33:08.723Z,2.63
2022-09-06T02:36:02.712Z,2.33
2022-09-06T02:38:56.716Z,2.58
2022-09-06T02:41:52.719Z,2.42
2022-09-06T02:44:40.324Z,2.55
2022-09-06T02:47:33.715Z,2.63
2022-09-06T02:50:27.724Z,2.78
2022-09-06T02:53:22.727Z,3.13
2022-09-06T02:56:16.762Z,2.45
2022-09-06T02:59:07.496Z,2.60
2022-09-06T03:02:00.827Z,2.25
2022-09-06T03:04:54.804Z,2.58
2022-09-06T03:07:48.772Z,2.50
2022-09-06T03:10:42.817Z,2.33
2022-09-06T03:13:36.821Z,2.40
2022-09-06T03:16:24.035Z,2.40
2022-09-06T03:19:17.817Z,2.50
2022-09-06T03:22:04.937Z,2.30
2022-09-06T03:24:58.784Z,2.10
2022-09-06T03:27:46.234Z,2.72
2022-09-06T03:30:39.908Z,2.35
2022-09-06T03:33:33.821Z,2.47
2022-09-06T03:36:27.848Z,2.30
2022-09-06T03:39:15.048Z,2.40
2022-09-06T03:42:08.782Z,2.42
2022-09-06T03:45:02.858Z,2.30
2022-09-06T03:47:50.083Z,2.42
2022-09-06T03:50:43.841Z,2.50
2022-09-06T03:53:37.821Z,2.63
2022-09-06T03:56:31.880Z,4.07
2022-09-06T03:59:25.883Z,3.30
2022-09-06T04:02:13.071Z,4.25
2022-09-06T04:05:06.851Z,3.90
2022-09-06T04:07:53.894Z,3.80
2022-09-06T04:10:47.860Z,3.58
2022-09-06T04:13:35.191Z,5.20
2022-09-06T04:16:28.896Z,6.38
2022-09-06T04:19:22.859Z,6.65
2022-09-06T04:22:16.902Z,6.00
2022-09-06T04:25:10.866Z,5.38
2022-09-06T04:28:04.922Z,4.80
2022-09-06T04:30:54.139Z,4.80
2022-09-06T04:33:48.925Z,6.10
2022-09-06T04:36:46.491Z,5.85
2022-09-06T04:39:35.463Z,6.38
2022-09-06T04:42:28.973Z,5.75
2022-09-06T04:45:16.079Z,5.15
2022-09-06T04:48:09.902Z,5.20
2022-09-06T04:50:57.002Z,6.53
2022-09-06T04:53:50.914Z,6.43
2022-09-06T04:56:38.032Z,6.53
2022-09-06T04:59:31.934Z,6.10
2022-09-06T05:02:26.048Z,5.97
2022-09-06T05:05:13.291Z,7.10
2022-09-06T05:08:06.975Z,5.88
2022-09-06T05:10:54.039Z,5.53
2022-09-06T05:13:48.938Z,6.13
2022-09-06T05:16:36.103Z,6.90
2022-09-06T05:19:29.960Z,6.13
2022-09-06T05:22:23.957Z,5.97
2022-09-06T05:25:11.458Z,5.72
2022-09-06T05:28:11.980Z,5.68
2022-09-06T05:31:32.028Z,5.85
2022-09-06T05:34:19.209Z,5.43
2022-09-06T05:37:12.982Z,5.25
2022-09-06T05:40:01.768Z,5.30
2022-09-06T05:42:55.001Z,4.65
2022-09-06T05:45:42.123Z,4.85
2022-09-06T05:48:37.186Z,5.07
2022-09-06T05:51:24.525Z,6.00
2022-09-06T05:54:18.021Z,5.75
2022-09-06T05:57:12.036Z,5.57
2022-09-06T06:00:06.053Z,5.53
2022-09-06T06:02:53.193Z,5.60
2022-09-06T06:05:47.014Z,5.15
2022-09-06T06:08:47.032Z,5.28
2022-09-06T06:11:41.038Z,4.65
2022-09-06T06:14:35.095Z,4.47
2022-09-06T06:17:22.228Z,4.57
2022-09-06T06:20:16.078Z,4.10
2022-09-06T06:23:03.177Z,4.35
2022-09-06T06:25:57.080Z,4.25
2022-09-06T06:28:44.360Z,4.32
2022-09-06T06:31:40.171Z,4.82
2022-09-06T06:34:27.342Z,4.57
2022-09-06T06:37:21.058Z,4.47
2022-09-06T06:40:09.046Z,4.20
2022-09-06T06:43:03.127Z,4.57
2022-09-06T06:45:50.652Z,4.75
2022-09-06T06:48:50.387Z,4.75
2022-09-06T06:51:39.934Z,4.47
2022-09-06T06:54:34.188Z,3.80
2022-09-06T06:57:21.312Z,3.88
2022-09-06T07:00:16.144Z,3.50
2022-09-06T07:03:03.431Z,4.30
2022-09-06T07:06:13.095Z,4.22
2022-09-06T07:09:07.138Z,4.15
2022-09-06T07:11:54.250Z,3.58
2022-09-06T07:14:48.158Z,3.70
2022-09-06T07:17:35.653Z,3.65
2022-09-06T07:20:30.235Z,3.28
2022-09-06T07:26:34.263Z,3.88
2022-09-06T07:29:21.696Z,2.70
2022-09-06T07:32:15.190Z,3.17
2022-09-06T07:35:09.221Z,2.80
2022-09-06T07:38:04.191Z,3.63
2022-09-06T07:40:56.021Z,2.60
2022-09-06T07:43:50.177Z,2.53
2022-09-06T07:46:44.353Z,4.35
2022-09-06T07:49:34.777Z,2.72
2022-09-06T07:55:47.199Z,3.15
2022-09-06T07:58:41.258Z,3.05
2022-09-06T08:01:32.489Z,2.72
2022-09-06T08:04:26.255Z,3.08
2022-09-06T08:10:28.254Z,1.77
2022-09-06T08:13:15.433Z,2.45
2022-09-06T08:16:11.328Z,3.72
2022-09-06T08:19:00.576Z,3.42
2022-09-06T08:21:54.248Z,2.95
2022-09-06T08:24:48.269Z,3.28
2022-09-06T08:27:42.269Z,2.65
2022-09-06T08:30:29.454Z,2.10
2022-09-06T08:33:26.333Z,2.35
2022-09-06T08:36:14.538Z,2.40
2022-09-06T08:39:10.465Z,2.00
2022-09-06T08:42:00.762Z,1.60
2022-09-06T08:44:58.740Z,2.75
2022-09-06T08:47:46.159Z,2.13
2022-09-06T08:50:42.305Z,2.90
2022-09-06T08:53:36.298Z,2.10
2022-09-06T08:56:38.507Z,2.28
2022-09-06T08:59:32.380Z,3.03
2022-09-06T09:02:28.579Z,2.35
2022-09-06T09:05:32.369Z,2.40
2022-09-06T09:08:28.575Z,3.05
2022-09-06T09:11:26.377Z,2.50
2022-09-06T09:14:20.358Z,3.88
2022-09-06T09:17:16.488Z,2.50
2022-09-06T09:20:11.380Z,4.70
2022-09-06T09:22:58.563Z,3.50
2022-09-06T09:25:53.326Z,3.75
2022-09-06T09:29:16.396Z,3.20
2022-09-06T09:32:03.635Z,3.72
2022-09-06T09:34:58.371Z,5.05
2022-09-06T09:37:47.214Z,3.72
2022-09-06T09:40:48.391Z,2.90
2022-09-06T09:43:43.361Z,1.90
2022-09-06T09:46:35.752Z,3.20
2022-09-06T09:49:30.417Z,2.53
2022-09-06T09:52:37.391Z,3.28
2022-09-06T09:55:26.121Z,2.35
2022-09-06T09:58:40.435Z,2.10
2022-09-06T10:01:30.647Z,2.35
2022-09-06T10:04:45.210Z,3.30
2022-09-06T10:07:34.047Z,4.43
2022-09-06T10:10:32.416Z,3.00
2022-09-06T10:13:36.456Z,3.13
2022-09-06T10:16:43.387Z,2.88
2022-09-06T10:19:48.447Z,4.10
2022-09-06T10:23:10.446Z,4.57
2022-09-06T10:26:17.079Z,3.30
2022-09-06T10:29:18.442Z,3.17
2022-09-06T10:32:43.037Z,3.30
2022-09-06T10:35:41.466Z,3.85
2022-09-06T10:39:03.751Z,3.03
2022-09-06T10:42:27.487Z,3.05
2022-09-06T10:45:35.470Z,4.97
2022-09-06T10:48:59.495Z,4.05
2022-09-06T10:52:08.498Z,3.58
2022-09-06T10:55:02.205Z,4.32
2022-09-06T10:58:19.049Z,4.97
2022-09-06T11:01:21.356Z,3.30
2022-09-06T11:04:26.773Z,6.57
2022-09-06T11:07:40.588Z,5.13
2022-09-06T11:10:39.519Z,3.92
2022-09-06T11:13:28.347Z,3.28
2022-09-06T11:16:38.733Z,5.50
2022-09-06T11:19:32.227Z,3.90
2022-09-06T11:22:34.606Z,6.60
2022-09-06T11:26:06.602Z,6.70
2022-09-06T11:29:03.192Z,6.03
2022-09-06T11:32:16.194Z,7.68
2022-09-06T11:35:08.055Z,5.03
2022-09-06T11:38:31.564Z,6.97
2022-09-06T11:41:25.562Z,6.22
2022-09-06T11:44:12.665Z,8.48
2022-09-06T11:47:07.599Z,10.15
2022-09-06T11:49:54.760Z,9.35
2022-09-06T11:53:06.595Z,9.48
2022-09-06T11:55:59.902Z,8.18
2022-09-06T11:59:06.612Z,9.23
2022-09-06T12:02:00.289Z,11.98
2022-09-06T12:05:06.614Z,8.77
2022-09-06T12:08:21.594Z,5.63
2022-09-06T12:11:38.889Z,6.40
2022-09-06T12:14:34.662Z,5.13
2022-09-06T12:17:28.618Z,4.80
2022-09-06T12:20:59.635Z,6.45
2022-09-06T12:23:46.751Z,6.60
2022-09-06T12:27:00.693Z,5.85
2022-09-06T12:29:58.088Z,6.78
2022-09-06T12:32:56.642Z,8.20
2022-09-06T12:35:58.054Z,5.43
2022-09-06T12:39:03.832Z,6.70
2022-09-06T12:42:09.650Z,4.32
2022-09-06T12:44:57.358Z,4.82
2022-09-06T12:47:51.654Z,5.85
2022-09-06T12:50:39.287Z,5.38
2022-09-06T12:53:34.676Z,7.38
2022-09-06T12:56:30.727Z,7.00
2022-09-06T12:59:31.815Z,4.45
2022-09-06T13:02:29.648Z,4.75
2022-09-06T13:05:23.765Z,5.22
2022-09-06T13:08:19.136Z,4.45
2022-09-06T13:11:17.713Z,5.47
2022-09-06T13:14:19.701Z,5.15
2022-09-06T13:17:06.865Z,4.97
2022-09-06T13:20:00.710Z,4.70
2022-09-06T13:22:57.804Z,4.82
2022-09-06T13:25:50.687Z,4.93
2022-09-06T13:28:44.746Z,4.43
2022-09-06T13:31:32.382Z,3.40
2022-09-06T13:34:34.740Z,3.08
2022-09-06T13:37:22.599Z,3.03
2022-09-06T13:41:10.100Z,2.45
2022-09-06T13:44:15.598Z,3.42
2022-09-06T13:47:09.749Z,2.92
2022-09-06T13:50:03.758Z,1.92
2022-09-06T13:52:57.823Z,2.30
2022-09-06T13:55:51.773Z,2.30
2022-09-06T13:58:38.907Z,1.55
2022-09-06T14:01:32.920Z,2.25
2022-09-06T14:04:21.535Z,1.70
2022-09-06T14:07:15.785Z,1.20
2022-09-06T14:10:09.901Z,1.70
2022-09-06T14:12:56.986Z,2.58
2022-09-06T14:15:52.871Z,2.03
2022-09-06T14:18:46.858Z,2.67
2022-09-06T14:21:34.045Z,2.38
2022-09-06T14:24:27.876Z,2.25
2022-09-06T14:27:21.890Z,2.17
2022-09-06T14:30:09.791Z,2.33
2022-09-06T14:33:03.858Z,2.40
2022-09-06T14:35:50.963Z,2.42
2022-09-06T14:38:46.837Z,1.98
2022-09-06T14:41:34.048Z,1.90
2022-09-06T14:44:27.850Z,1.50
2022-09-06T14:47:14.909Z,1.60
2022-09-06T14:50:08.846Z,1.70
2022-09-06T14:53:03.074Z,1.50
2022-09-06T14:55:50.485Z,1.75
2022-09-06T14:58:45.924Z,1.35
2022-09-06T15:01:40.945Z,1.80
2022-09-06T15:04:35.912Z,1.90
2022-09-06T15:07:23.706Z,1.60
2022-09-06T15:10:17.871Z,1.60
2022-09-06T15:13:05.371Z,1.20
2022-09-06T15:16:02.978Z,1.50
2022-09-06T15:18:50.267Z,1.73
2022-09-06T15:21:43.924Z,2.28
2022-09-06T15:24:38.972Z,2.10
2022-09-06T15:27:26.170Z,2.67
2022-09-06T15:30:19.920Z,2.00
2022-09-06T15:33:13.980Z,1.77
2022-09-06T15:36:12.953Z,1.70
2022-09-06T15:39:01.595Z,1.60
2022-09-06T15:41:56.988Z,1.10
2022-09-06T15:44:44.133Z,1.40
2022-09-06T15:47:38.027Z,1.40
2022-09-06T15:50:47.679Z,1.20
2022-09-06T15:53:39.018Z,1.33
2022-09-06T15:56:26.069Z,1.08
2022-09-06T15:59:19.988Z,1.08
2022-09-06T16:02:07.358Z,1.13
2022-09-06T16:05:00.970Z,1.30
2022-09-06T16:07:55.039Z,1.10
2022-09-06T16:10:42.116Z,0.90
2022-09-06T16:13:39.999Z,0.93
2022-09-06T16:16:27.185Z,0.77
2022-09-06T16:19:21.002Z,0.63
2022-09-06T16:22:14.989Z,0.70
2022-09-06T16:25:09.034Z,0.65
2022-09-06T16:27:56.267Z,0.50
2022-09-06T16:30:57.080Z,0.40
2022-09-06T16:33:45.614Z,0.50
2022-09-06T16:36:39.044Z,0.60
2022-09-06T16:39:26.392Z,0.52
2022-09-06T16:42:20.043Z,0.40
2022-09-06T16:45:07.505Z,0.50
2022-09-06T16:48:01.075Z,0.40
2022-09-06T16:50:48.188Z,0.40
2022-09-06T16:53:42.087Z,0.55
2022-09-06T16:56:40.044Z,0.50
2022-09-06T16:59:27.174Z,0.90
2022-09-06T17:02:21.371Z,0.82
2022-09-06T17:05:09.375Z,1.00
2022-09-06T17:08:03.075Z,0.90
2022-09-06T17:10:57.131Z,0.60
2022-09-06T17:13:46.221Z,0.70
2022-09-06T17:16:58.171Z,0.80
2022-09-06T17:19:45.455Z,0.70
2022-09-06T17:22:39.086Z,0.70
2022-09-06T17:25:26.366Z,0.60
2022-09-06T17:28:20.111Z,0.60
2022-09-06T17:31:08.102Z,0.50
2022-09-06T17:34:02.125Z,0.60
2022-09-06T17:36:56.191Z,0.73
2022-09-06T17:39:43.323Z,0.60
2022-09-06T17:42:38.118Z,1.00
2022-09-06T17:45:32.273Z,0.80
2022-09-06T17:48:28.332Z,0.57
2022-09-06T17:51:22.175Z,0.95
2022-09-06T17:54:10.218Z,0.80
2022-09-06T17:57:04.214Z,0.90
2022-09-06T17:59:58.226Z,1.00
2022-09-06T18:02:45.450Z,0.90
2022-09-06T18:05:49.229Z,0.80
2022-09-06T18:08:37.744Z,0.80
2022-09-06T18:11:34.328Z,0.93
2022-09-06T18:14:21.607Z,1.10
2022-09-06T18:17:15.187Z,1.08
2022-09-06T18:20:03.239Z,1.20
2022-09-06T18:22:57.255Z,1.20
2022-09-06T18:25:44.375Z,1.27
2022-09-06T18:28:39.215Z,1.52
2022-09-06T18:31:27.634Z,1.58
2022-09-06T18:34:23.190Z,2.05
2022-09-06T18:37:10.480Z,1.95
2022-09-06T18:40:04.249Z,2.38
2022-09-06T18:42:51.450Z,2.10
2022-09-06T18:45:45.252Z,1.80
2022-09-06T18:48:39.227Z,2.22
2022-09-06T18:51:33.254Z,1.90
2022-09-06T18:54:27.266Z,1.63
2022-09-06T18:57:15.854Z,1.58
2022-09-06T19:00:10.256Z,1.90
2022-09-06T19:03:04.312Z,1.92
2022-09-06T19:05:51.412Z,2.10
2022-09-06T19:08:45.281Z,2.05
2022-09-06T19:11:39.277Z,2.38
2022-09-06T19:14:26.409Z,2.33
2022-09-06T19:17:20.282Z,2.47
2022-09-06T19:20:10.781Z,2.83
2022-09-06T19:23:04.298Z,2.40
2022-09-06T19:26:24.287Z,2.10
2022-09-06T19:29:24.296Z,2.05
2022-09-06T19:32:18.288Z,2.78
2022-09-06T19:35:12.326Z,2.60
2022-09-06T19:38:06.351Z,2.30
2022-09-06T19:41:00.331Z,2.33
2022-09-06T19:43:51.112Z,2.08
2022-09-06T19:46:46.601Z,1.80
2022-09-06T19:49:34.266Z,1.90
2022-09-06T19:52:28.309Z,1.70
2022-09-06T19:55:15.505Z,1.80
2022-09-06T19:58:14.380Z,2.10
2022-09-06T20:01:01.804Z,1.65
2022-09-06T20:03:56.363Z,1.88
2022-09-06T20:06:50.353Z,1.83
2022-09-06T20:09:37.502Z,2.35
2022-09-06T20:12:31.377Z,2.40
2022-09-06T20:15:18.494Z,2.30
2022-09-06T20:18:12.375Z,2.58
2022-09-06T20:21:06.388Z,2.13
2022-09-06T20:24:02.354Z,2.42
2022-09-06T20:26:58.375Z,2.60
2022-09-06T20:29:45.579Z,2.13
2022-09-06T20:32:40.376Z,2.35
2022-09-06T20:35:28.292Z,2.17
2022-09-06T20:38:22.397Z,2.40
2022-09-06T20:41:12.184Z,2.63
2022-09-06T20:44:06.413Z,2.53
2022-09-06T20:47:00.529Z,2.50
2022-09-06T20:49:47.658Z,2.88
2022-09-06T20:52:41.470Z,3.00
2022-09-06T20:55:30.566Z,3.10
2022-09-06T20:58:24.459Z,2.83
2022-09-06T21:01:16.914Z,5.50
2022-09-06T21:04:13.418Z,4.60
2022-09-06T21:07:07.454Z,4.00
2022-09-06T21:09:54.574Z,4.47
2022-09-06T21:12:48.449Z,6.80
2022-09-06T21:15:37.596Z,6.63
2022-09-06T21:18:32.464Z,5.75
2022-09-06T21:21:26.479Z,5.35
2022-09-06T21:24:20.477Z,5.75
2022-09-06T21:27:14.510Z,4.72
2022-09-06T21:30:01.568Z,4.30
2022-09-06T21:32:55.500Z,4.95
2022-09-06T21:35:42.541Z,8.68
2022-09-06T21:38:37.516Z,6.78
2022-09-06T21:44:35.570Z,7.95
2022-09-06T21:47:37.505Z,7.20
2022-09-06T21:50:24.716Z,6.55
2022-09-06T21:53:18.543Z,7.55
2022-09-06T21:56:12.553Z,5.75
2022-09-06T21:59:06.530Z,5.28
2022-09-06T22:01:54.430Z,6.68
2022-09-06T22:04:48.537Z,6.75
2022-09-06T22:07:38.778Z,7.63
2022-09-06T22:10:32.581Z,8.73
2022-09-06T22:13:20.518Z,9.65
2022-09-06T22:16:14.589Z,12.50
2022-09-06T22:19:01.863Z,8.55
2022-09-06T22:21:58.563Z,9.23
2022-09-06T22:24:52.589Z,7.30
2022-09-06T22:27:46.554Z,6.05
2022-09-06T22:30:40.633Z,5.60
2022-09-06T22:33:34.788Z,5.32
2022-09-06T22:36:23.793Z,6.05
2022-09-06T22:39:17.610Z,7.07
2022-09-06T22:42:04.844Z,7.88
2022-09-06T22:44:58.632Z,8.57
2022-09-06T22:47:52.600Z,9.35
2022-09-06T22:50:40.907Z,8.10
2022-09-06T22:53:35.669Z,8.98
2022-09-06T22:56:22.984Z,8.55
2022-09-06T22:59:16.626Z,7.82
2022-09-06T23:02:04.439Z,7.00
2022-09-06T23:04:57.649Z,6.55
2022-09-06T23:07:51.616Z,6.68
2022-09-06T23:10:48.842Z,6.32
2022-09-06T23:13:36.166Z,5.60
2022-09-06T23:16:30.674Z,5.18
2022-09-06T23:19:24.683Z,4.90
2022-09-06T23:22:18.662Z,4.15
2022-09-06T23:25:13.641Z,5.00
2022-09-06T23:28:00.803Z,5.63
2022-09-06T23:31:00.723Z,5.47
2022-09-06T23:33:57.698Z,4.32
2022-09-06T23:36:45.269Z,5.82
2022-09-06T23:39:38.744Z,5.18
2022-09-06T23:42:32.712Z,4.47
2022-09-06T23:45:19.819Z,5.80
2022-09-06T23:48:13.695Z,6.95
2022-09-06T23:51:01.353Z,7.00
2022-09-06T23:53:54.688Z,6.10
2022-09-06T23:56:48.692Z,6.65
2022-09-06T23:59:42.732Z,6.35
